Time;durP1;ratioP1;P1;durP2;ratioP2;P2;SDS_P1;SDS_P2;PMS_P1;PMS_P2;Temp;Humidity;BMP_temperature;BMP_pressure;BME280_temperature;BME280_humidity;BME280_pressure;Samples;Min_cycle;Max_cycle;Signal;HPM_P1;HPM_P2
2021/07/02 15:16:13;;;;;;;8.15;5.82;;;23.80;83.20;;;;;;5060957;22;20160;31
2021/07/02 15:18:43;;;;;;;17.35;15.57;;;23.30;82.00;;;;;;4989102;28;20065;-49
2021/07/02 15:21:14;;;;;;;8.57;6.45;;;23.10;84.50;;;;;;4988875;28;20141;-48
2021/07/02 15:23:46;;;;;;;6.03;5.40;;;23.00;84.70;;;;;;4988755;28;20046;-46
2021/07/02 15:26:16;;;;;;;6.85;5.95;;;22.90;86.30;;;;;;4978297;28;20470;-46
2021/07/02 15:28:46;;;;;;;9.00;5.93;;;22.80;86.60;;;;;;4990771;28;20418;-51
2021/07/02 15:31:49;;;;;;;10.75;9.05;;;22.80;87.20;;;;;;4992033;28;20060;-49
2021/07/02 15:34:16;;;;;;;7.53;5.05;;;23.10;88.80;;;;;;4991493;28;20061;-48
2021/07/02 15:36:48;;;;;;;8.90;7.65;;;23.20;85.80;;;;;;4993390;28;20050;-49
2021/07/02 15:39:15;;;;;;;6.75;5.80;;;23.40;81.90;;;;;;4991773;28;20043;-47
2021/07/02 15:41:46;;;;;;;7.75;6.53;;;23.60;84.40;;;;;;4991012;28;20054;-46
2021/07/02 15:44:21;;;;;;;23.73;21.33;;;23.80;83.60;;;;;;4991758;28;20061;-44
2021/07/02 15:46:56;;;;;;;34.67;31.02;;;23.80;82.90;;;;;;4975427;28;20438;-46
2021/07/02 15:49:24;;;;;;;6.78;5.15;;;23.90;82.00;;;;;;4991790;28;20120;-46
2021/07/02 15:51:53;;;;;;;8.50;7.13;;;23.90;81.40;;;;;;4990921;28;20054;-46
2021/07/02 15:54:19;;;;;;;7.30;5.97;;;24.00;81.30;;;;;;4995273;28;20054;-45
2021/07/02 15:56:52;;;;;;;8.75;7.03;;;23.60;81.10;;;;;;4990079;28;20050;-45
2021/07/02 15:59:24;;;;;;;6.63;5.30;;;23.60;81.80;;;;;;4996953;28;20065;-45
2021/07/02 16:01:56;;;;;;;6.50;5.35;;;23.50;82.20;;;;;;4991475;28;20413;-45
2021/07/02 16:04:26;;;;;;;6.88;5.82;;;23.60;83.30;;;;;;4991289;28;20054;-45
2021/07/02 16:07:03;;;;;;;7.57;5.28;;;23.50;82.90;;;;;;4990869;28;20046;-45
2021/07/02 16:09:48;;;;;;;6.90;4.88;;;23.60;80.30;;;;;;4990173;28;20077;-46
2021/07/02 16:12:20;;;;;;;7.28;5.13;;;23.30;79.00;;;;;;4973329;28;20050;-45
2021/07/02 16:14:53;;;;;;;8.00;5.35;;;23.40;80.80;;;;;;4990592;28;20181;-44
2021/07/02 16:17:31;;;;;;;9.18;6.38;;;23.50;80.20;;;;;;4990848;28;20407;-44
2021/07/02 16:20:08;;;;;;;8.10;6.82;;;23.30;80.80;;;;;;4990728;28;20077;-46
2021/07/02 16:22:48;;;;;;;8.50;6.70;;;23.40;81.40;;;;;;4990492;28;20152;-48
2021/07/02 16:25:25;;;;;;;8.52;6.38;;;23.40;81.00;;;;;;4990811;28;20058;-44
2021/07/02 16:28:03;;;;;;;8.25;6.13;;;23.30;80.70;;;;;;4990838;28;20054;-45
2021/07/02 16:30:37;;;;;;;8.20;6.30;;;23.30;80.10;;;;;;4991034;28;20058;-44
2021/07/02 16:33:08;;;;;;;10.40;8.10;;;23.20;79.40;;;;;;4990842;28;20100;-45
2021/07/02 16:35:35;;;;;;;11.20;8.55;;;23.00;79.00;;;;;;4987977;28;20051;-45
2021/07/02 16:38:07;;;;;;;54.83;49.53;;;22.80;80.30;;;;;;4990612;28;20176;-46
2021/07/02 16:40:41;;;;;;;7.90;6.03;;;22.70;80.80;;;;;;4972962;28;20504;-46
2021/07/02 16:43:15;;;;;;;11.00;8.05;;;22.60;83.40;;;;;;4990513;28;20085;-44
2021/07/02 16:45:48;;;;;;;7.88;6.28;;;22.80;82.70;;;;;;4996431;28;20158;-45
2021/07/02 16:48:23;;;;;;;11.32;8.07;;;22.70;83.90;;;;;;4991185;28;20097;-45
2021/07/02 16:51:00;;;;;;;10.95;6.85;;;22.70;83.90;;;;;;4991146;28;20054;-46
2021/07/02 16:53:38;;;;;;;13.75;9.02;;;22.60;84.40;;;;;;4991214;28;20120;-46
2021/07/02 16:56:16;;;;;;;10.05;7.00;;;22.60;85.40;;;;;;4990821;28;20057;-46
2021/07/02 16:58:45;;;;;;;11.93;6.85;;;22.60;82.50;;;;;;4990883;28;20119;-45
2021/07/02 17:01:12;;;;;;;10.43;6.15;;;22.40;83.70;;;;;;4990757;28;20157;-46
2021/07/02 17:03:43;;;;;;;10.25;7.07;;;22.40;83.50;;;;;;4990540;28;20137;-47
2021/07/02 17:06:10;;;;;;;8.15;6.22;;;22.60;83.80;;;;;;4990179;28;20086;-46
2021/07/02 17:08:39;;;;;;;10.35;6.68;;;22.70;84.30;;;;;;4989577;28;20042;-47
2021/07/02 17:11:11;;;;;;;11.52;7.90;;;22.70;85.30;;;;;;4990234;28;20083;-46
2021/07/02 17:13:51;;;;;;;12.43;7.38;;;22.70;84.20;;;;;;4989694;28;20499;-44
2021/07/02 17:16:19;;;;;;;8.73;6.65;;;22.50;84.20;;;;;;4990028;28;20073;-46
2021/07/02 17:18:50;;;;;;;8.98;6.43;;;22.40;84.00;;;;;;4989762;28;20598;-48
2021/07/02 17:21:21;;;;;;;9.63;6.57;;;22.30;85.90;;;;;;4987974;28;20051;-48
2021/07/02 17:23:53;;;;;;;12.10;8.05;;;22.20;85.90;;;;;;4990056;28;20050;-46
2021/07/02 17:26:25;;;;;;;7.85;6.78;;;22.20;86.60;;;;;;4990148;28;20128;-46
2021/07/02 17:28:57;;;;;;;10.48;6.38;;;22.30;88.60;;;;;;4990048;28;20050;-46
2021/07/02 17:31:29;;;;;;;11.68;9.35;;;22.20;89.20;;;;;;4990056;28;20062;-46
2021/07/02 17:34:01;;;;;;;;;;;22.10;90.20;;;;;;4990309;28;20082;-48
2021/07/02 17:36:35;;;;;;;18.77;16.67;;;21.90;89.40;;;;;;4989836;28;19925;-48
2021/07/02 17:39:14;;;;;;;8.85;6.82;;;21.80;90.70;;;;;;4991584;28;20105;-46
2021/07/02 17:41:47;;;;;;;8.57;6.75;;;21.70;91.20;;;;;;4976162;28;20050;-46
2021/07/02 17:44:18;;;;;;;7.47;6.00;;;21.70;91.40;;;;;;4988595;28;20045;-45
2021/07/02 17:46:47;;;;;;;11.77;6.93;;;21.70;91.60;;;;;;4994399;28;20050;-47
2021/07/02 17:49:14;;;;;;;10.43;7.70;;;21.70;91.90;;;;;;4989535;28;20058;-46
2021/07/02 17:51:41;;;;;;;61.00;54.63;;;21.70;92.10;;;;;;4990044;28;20137;-47
2021/07/02 17:54:16;;;;;;;9.77;5.40;;;21.70;92.30;;;;;;4991714;28;20046;-46
2021/07/02 17:56:57;;;;;;;9.85;6.10;;;21.60;92.00;;;;;;4989451;28;20089;-49
2021/07/02 17:59:36;;;;;;;30.50;27.15;;;21.50;91.50;;;;;;4976405;28;20092;-47
2021/07/02 18:02:10;;;;;;;11.27;7.18;;;21.30;91.80;;;;;;4995469;28;20046;-49
2021/07/02 18:04:44;;;;;;;9.68;6.35;;;21.20;91.50;;;;;;4990137;28;20047;-48
2021/07/02 18:07:15;;;;;;;10.57;7.28;;;21.20;92.00;;;;;;4996229;28;20050;-45
2021/07/02 18:09:52;;;;;;;14.05;9.98;;;21.10;92.70;;;;;;4972673;28;20081;-46
2021/07/02 18:12:26;;;;;;;12.00;6.40;;;21.00;92.80;;;;;;4988659;28;20046;-46
2021/07/02 18:15:08;;;;;;;7.43;5.35;;;20.90;93.20;;;;;;4989440;28;20054;-44
2021/07/02 18:17:46;;;;;;;8.80;5.50;;;20.80;93.90;;;;;;4988520;28;20062;-49
2021/07/02 18:20:28;;;;;;;10.45;5.47;;;20.80;94.70;;;;;;4989285;28;20060;-48
2021/07/02 18:23:06;;;;;;;9.10;5.43;;;20.70;95.20;;;;;;4992374;28;20130;-46
2021/07/02 18:25:46;;;;;;;9.20;5.22;;;20.60;96.00;;;;;;4970428;28;20137;-47
2021/07/02 18:28:23;;;;;;;9.00;6.00;;;20.60;95.50;;;;;;4974338;28;20057;-49
2021/07/02 18:30:56;;;;;;;8.63;6.65;;;20.50;95.80;;;;;;4989215;28;20064;-45
2021/07/02 18:33:32;;;;;;;7.55;5.57;;;20.40;95.90;;;;;;4989461;28;20097;-46
2021/07/02 18:36:04;;;;;;;10.75;6.50;;;20.40;96.10;;;;;;4980818;28;20716;-46
2021/07/02 18:38:39;;;;;;;8.48;6.53;;;20.30;96.00;;;;;;4992682;28;20042;-48
2021/07/02 18:41:08;;;;;;;29.60;24.88;;;20.20;96.10;;;;;;4979281;28;20406;-48
2021/07/02 18:43:43;;;;;;;9.23;5.20;;;20.10;96.40;;;;;;4989096;28;20069;-46
2021/07/02 18:46:12;;;;;;;11.70;6.05;;;20.10;96.60;;;;;;4989076;28;20058;-47
2021/07/02 18:48:44;;;;;;;9.25;6.75;;;20.00;97.10;;;;;;4989467;28;20143;-47
2021/07/02 18:51:19;;;;;;;10.70;6.05;;;20.00;97.90;;;;;;4988731;28;20046;-47
2021/07/02 18:53:50;;;;;;;18.87;12.40;;;19.90;98.60;;;;;;4971432;28;20083;-46
2021/07/02 18:56:21;;;;;;;11.85;8.52;;;19.80;98.60;;;;;;4988375;28;20157;-45
2021/07/02 18:58:52;;;;;;;14.43;11.18;;;19.80;99.00;;;;;;4992446;28;20058;-46
2021/07/02 19:01:19;;;;;;;12.25;6.47;;;19.70;99.30;;;;;;4979043;28;20047;-49
2021/07/02 19:03:53;;;;;;;9.77;5.97;;;19.70;99.80;;;;;;4954870;28;20051;-47
2021/07/02 19:06:27;;;;;;;12.25;8.50;;;19.60;99.90;;;;;;4989140;28;20052;-47
2021/07/02 19:09:00;;;;;;;;;;;19.60;99.90;;;;;;4989495;28;20396;-49
2021/07/02 19:11:32;;;;;;;9.90;6.00;;;19.50;99.90;;;;;;4989067;28;19972;-46
2021/07/02 19:14:08;;;;;;;12.60;8.13;;;19.40;99.90;;;;;;4988532;28;20050;-46
2021/07/02 19:16:51;;;;;;;10.68;5.97;;;19.40;99.90;;;;;;4987152;28;20062;-44
2021/07/02 19:19:20;;;;;;;9.75;7.18;;;19.30;99.90;;;;;;4990906;28;20137;-47
2021/07/02 19:21:48;;;;;;;13.50;10.18;;;19.20;99.90;;;;;;4988982;28;20058;-47
2021/07/02 19:24:32;;;;;;;9.75;7.28;;;19.20;99.90;;;;;;4988934;28;20121;-48
2021/07/02 19:27:10;;;;;;;13.88;9.40;;;19.20;99.90;;;;;;4988547;28;20499;-46
2021/07/02 19:29:49;;;;;;;13.18;7.47;;;19.10;99.90;;;;;;4988856;28;20050;-47
2021/07/02 19:32:30;;;;;;;14.38;7.13;;;19.10;99.90;;;;;;4988696;28;20249;-49
2021/07/02 19:35:12;;;;;;;9.32;6.63;;;19.10;99.90;;;;;;4988021;28;20491;-46
2021/07/02 19:37:46;;;;;;;12.32;5.90;;;19.10;99.90;;;;;;4988505;28;20054;-45
2021/07/02 19:40:19;;;;;;;11.50;7.45;;;19.10;99.90;;;;;;4988983;28;20116;-46
2021/07/02 19:42:55;;;;;;;8.55;6.07;;;19.10;99.90;;;;;;4983139;28;20078;-45
2021/07/02 19:45:23;;;;;;;12.40;7.18;;;19.10;99.90;;;;;;4944209;28;20477;-47
2021/07/02 19:47:52;;;;;;;10.90;5.85;;;19.10;99.90;;;;;;4958899;28;20051;-49
2021/07/02 19:50:33;;;;;;;10.30;5.97;;;19.10;99.90;;;;;;4949509;28;20134;-49
2021/07/02 19:53:09;;;;;;;9.57;6.15;;;19.00;99.90;;;;;;4950794;29;20743;-45
2021/07/02 19:55:57;;;;;;;9.82;5.78;;;18.90;99.90;;;;;;4949477;28;20055;-46
2021/07/02 19:58:32;;;;;;;10.43;6.60;;;18.70;99.90;;;;;;4950027;28;20475;-49
2021/07/02 20:01:09;;;;;;;14.13;8.45;;;18.70;99.90;;;;;;4930866;29;20090;-49
2021/07/02 20:03:39;;;;;;;11.15;5.45;;;18.60;99.90;;;;;;4936458;29;20051;-46
2021/07/02 20:06:11;;;;;;;9.68;6.03;;;18.50;99.90;;;;;;4945523;29;20773;-48
2021/07/02 20:08:44;;;;;;;7.07;5.32;;;18.40;99.90;;;;;;4949191;29;20058;-48
2021/07/02 20:11:27;;;;;;;9.35;6.15;;;18.30;99.90;;;;;;4935104;29;20504;-47
2021/07/02 20:14:10;;;;;;;9.95;5.95;;;18.20;99.90;;;;;;4954945;28;20054;-49
2021/07/02 20:16:37;;;;;;;10.07;5.60;;;18.10;99.90;;;;;;4953189;29;20130;-46
2021/07/02 20:19:16;;;;;;;10.38;5.72;;;18.00;99.90;;;;;;4969495;28;20062;-46
2021/07/02 20:21:49;;;;;;;9.18;5.60;;;17.90;99.90;;;;;;4978369;28;20042;-45
2021/07/02 20:24:26;;;;;;;9.63;5.82;;;17.80;99.90;;;;;;4982607;28;20061;-47
2021/07/02 20:27:06;;;;;;;11.20;6.13;;;17.70;99.90;;;;;;4990829;28;20047;-48
2021/07/02 20:29:41;;;;;;;11.23;6.65;;;17.60;99.90;;;;;;4991856;28;20072;-46
2021/07/02 20:32:13;;;;;;;8.63;6.72;;;17.60;99.90;;;;;;4991442;28;20126;-45
2021/07/02 20:34:54;;;;;;;10.38;6.63;;;17.50;99.90;;;;;;4990159;28;20051;-47
2021/07/02 20:37:28;;;;;;;9.73;6.45;;;17.40;99.90;;;;;;4990482;28;20518;-47
2021/07/02 20:40:10;;;;;;;8.57;6.85;;;17.40;99.90;;;;;;4991858;28;20061;-44
2021/07/02 20:42:42;;;;;;;8.93;6.53;;;17.30;99.90;;;;;;4991659;28;20054;-45
2021/07/02 20:45:13;;;;;;;11.73;6.88;;;17.20;99.90;;;;;;4991184;28;20042;-46
2021/07/02 20:47:47;;;;;;;9.60;6.95;;;17.10;99.90;;;;;;4992922;28;20058;-45
2021/07/02 20:50:22;;;;;;;9.95;6.72;;;17.10;99.90;;;;;;4991383;28;20070;-49
2021/07/02 20:52:59;;;;;;;9.43;5.57;;;17.10;99.90;;;;;;4996352;28;20053;-44
2021/07/02 20:55:28;;;;;;;9.48;6.40;;;16.90;99.90;;;;;;4973742;28;20574;-45
2021/07/02 20:58:05;;;;;;;;;;;16.90;99.90;;;;;;4991711;28;20066;-46
2021/07/02 21:00:45;;;;;;;10.93;6.70;;;17.00;99.90;;;;;;4988182;28;19976;-46
2021/07/02 21:03:19;;;;;;;11.20;6.57;;;16.90;99.90;;;;;;4990857;28;20120;-48
2021/07/02 21:05:55;;;;;;;10.95;6.90;;;16.80;99.90;;;;;;4977752;28;20434;-46
2021/07/02 21:08:31;;;;;;;9.30;6.10;;;16.80;99.90;;;;;;4970698;28;20559;-48
2021/07/02 21:11:05;;;;;;;9.52;6.53;;;16.70;99.90;;;;;;4972412;28;20149;-47
2021/07/02 21:13:40;;;;;;;10.60;6.75;;;16.70;99.90;;;;;;4978926;28;20050;-47
2021/07/02 21:16:28;;;;;;;10.57;7.22;;;16.60;99.90;;;;;;4989811;28;20487;-49
2021/07/02 21:19:06;;;;;;;11.20;6.80;;;16.60;99.90;;;;;;4968913;28;20444;-47
2021/07/02 21:21:38;;;;;;;12.52;7.28;;;16.60;99.90;;;;;;4952008;28;20050;-45
2021/07/02 21:24:14;;;;;;;12.05;6.68;;;16.50;99.90;;;;;;4953013;28;20563;-47
2021/07/02 21:26:46;;;;;;;9.93;5.70;;;16.40;99.90;;;;;;4970714;28;20057;-46
2021/07/02 21:29:35;;;;;;;10.88;7.05;;;16.30;99.90;;;;;;4970835;28;20418;-45
2021/07/02 21:32:16;;;;;;;11.10;6.90;;;16.30;99.90;;;;;;4970586;28;20055;-46
2021/07/02 21:34:52;;;;;;;10.20;6.32;;;16.20;99.90;;;;;;4970961;28;20077;-45
2021/07/02 21:37:35;;;;;;;12.77;7.43;;;16.20;99.90;;;;;;4970869;28;20059;-49
2021/07/02 21:40:12;;;;;;;9.55;7.05;;;16.10;99.90;;;;;;4985142;28;20054;-48
2021/07/02 21:42:45;;;;;;;10.23;5.85;;;16.10;99.90;;;;;;4968476;28;20046;-45
2021/07/02 21:45:22;;;;;;;10.10;6.30;;;16.00;99.90;;;;;;4956800;28;20047;-46
2021/07/02 21:47:59;;;;;;;8.40;6.60;;;15.90;99.90;;;;;;4970353;28;20058;-46
2021/07/02 21:50:40;;;;;;;9.27;6.70;;;15.90;99.90;;;;;;4970078;28;20408;-46
2021/07/02 21:53:26;;;;;;;9.68;6.80;;;15.80;99.90;;;;;;4970539;28;20115;-47
2021/07/02 21:56:07;;;;;;;12.77;6.38;;;15.70;99.90;;;;;;4954249;28;20043;-45
2021/07/02 21:58:49;;;;;;;11.77;7.63;;;15.70;99.90;;;;;;4970428;28;20533;-48
2021/07/02 22:01:21;;;;;;;11.45;6.85;;;15.70;99.90;;;;;;4971363;28;20403;-46
2021/07/02 22:04:01;;;;;;;9.77;6.95;;;15.60;99.90;;;;;;4970236;28;20423;-47
2021/07/02 22:06:41;;;;;;;12.23;6.88;;;15.60;99.90;;;;;;4969776;28;20102;-46
2021/07/02 22:09:27;;;;;;;12.20;6.55;;;15.60;99.90;;;;;;4968063;28;20503;-46
2021/07/02 22:12:07;;;;;;;11.15;7.07;;;15.50;99.90;;;;;;4969870;28;20667;-47
2021/07/02 22:14:36;;;;;;;11.60;7.20;;;15.50;99.90;;;;;;4966361;28;20076;-47
2021/07/02 22:17:11;;;;;;;13.48;7.60;;;15.50;99.90;;;;;;4976134;28;20510;-46
2021/07/02 22:19:48;;;;;;;10.02;7.88;;;15.40;99.90;;;;;;4984481;28;20054;-46
2021/07/02 22:22:29;;;;;;;12.90;8.32;;;15.40;99.90;;;;;;4989260;28;20051;-45
2021/07/02 22:25:09;;;;;;;11.00;8.73;;;15.40;99.90;;;;;;4989705;28;20105;-45
2021/07/02 22:27:51;;;;;;;9.90;8.13;;;15.20;99.90;;;;;;4989751;28;20092;-45
2021/07/02 22:30:29;;;;;;;13.85;11.30;;;15.20;99.90;;;;;;4989178;28;20054;-46
2021/07/02 22:33:08;;;;;;;14.05;11.32;;;15.10;99.90;;;;;;4969452;28;20125;-46
2021/07/02 22:35:43;;;;;;;13.38;10.00;;;15.10;99.90;;;;;;4980580;28;20065;-46
2021/07/02 22:38:18;;;;;;;11.40;8.38;;;15.00;99.90;;;;;;4971730;28;20069;-46
2021/07/02 22:40:56;;;;;;;14.23;9.20;;;15.00;99.90;;;;;;4989325;28;20061;-47
2021/07/02 22:43:43;;;;;;;11.35;8.60;;;15.00;99.90;;;;;;4989881;28;20057;-46
2021/07/02 22:46:23;;;;;;;12.38;8.73;;;14.90;99.90;;;;;;4989466;28;20487;-45
2021/07/02 22:49:04;;;;;;;10.43;8.30;;;14.90;99.90;;;;;;4989729;28;20054;-44
2021/07/02 22:51:42;;;;;;;12.40;8.55;;;14.80;99.90;;;;;;4972240;28;20082;-47
2021/07/02 22:54:19;;;;;;;10.63;8.32;;;14.70;99.90;;;;;;4989102;28;20586;-45
2021/07/02 22:57:03;;;;;;;9.82;8.15;;;14.60;99.90;;;;;;4989374;28;20714;-45
2021/07/02 22:59:41;;;;;;;11.60;8.65;;;14.60;99.90;;;;;;4988866;28;20132;-46
2021/07/02 23:02:22;;;;;;;13.95;9.05;;;14.60;99.90;;;;;;4989188;28;20050;-48
2021/07/02 23:04:57;;;;;;;14.57;9.02;;;14.60;99.90;;;;;;4988723;28;20112;-46
2021/07/02 23:07:33;;;;;;;10.10;7.80;;;14.50;99.90;;;;;;4988793;28;20046;-45
2021/07/02 23:10:15;;;;;;;10.40;9.02;;;14.50;99.90;;;;;;4976810;28;20061;-50
2021/07/02 23:13:00;;;;;;;9.60;8.18;;;14.50;99.90;;;;;;4988965;28;20054;-49
2021/07/02 23:15:34;;;;;;;12.07;8.43;;;14.40;99.90;;;;;;4989349;28;20055;-45
2021/07/02 23:18:08;;;;;;;12.65;9.60;;;14.40;99.90;;;;;;4994829;28;20553;-45
2021/07/02 23:20:48;;;;;;;13.52;9.68;;;14.40;99.90;;;;;;4976946;28;20499;-45
2021/07/02 23:23:29;;;;;;;14.43;10.02;;;14.30;99.90;;;;;;4970762;28;20137;-46
2021/07/02 23:26:04;;;;;;;10.43;9.18;;;14.40;99.90;;;;;;4969316;28;20086;-46
2021/07/02 23:28:33;;;;;;;13.75;9.43;;;14.30;99.90;;;;;;4969535;28;20066;-45
2021/07/02 23:31:05;;;;;;;11.13;9.38;;;14.30;99.90;;;;;;4969412;28;20137;-47
2021/07/02 23:33:46;;;;;;;12.75;10.40;;;14.30;99.90;;;;;;4988000;28;20058;-48
2021/07/02 23:36:29;;;;;;;13.25;10.57;;;14.30;99.90;;;;;;4988253;28;20054;-48
2021/07/02 23:39:09;;;;;;;11.75;9.90;;;14.30;99.90;;;;;;4988655;28;20050;-46
2021/07/02 23:41:41;;;;;;;14.23;10.70;;;14.20;99.90;;;;;;4988629;28;20062;-45
2021/07/02 23:44:17;;;;;;;16.33;10.95;;;14.20;99.90;;;;;;4988876;28;20056;-44
2021/07/02 23:46:57;;;;;;;14.45;10.85;;;14.10;99.90;;;;;;4989589;28;20128;-45
2021/07/02 23:49:34;;;;;;;11.98;9.60;;;14.10;99.90;;;;;;4974413;28;20585;-48
2021/07/02 23:52:16;;;;;;;12.75;10.15;;;14.00;99.90;;;;;;4991364;28;20085;-47
2021/07/02 23:55:04;;;;;;;12.50;9.75;;;13.90;99.90;;;;;;4993093;28;20050;-46
2021/07/02 23:57:42;;;;;;;14.30;9.95;;;13.80;99.90;;;;;;4992550;28;20149;-45
